Aviation Digital Data Service (ADDS)

Output produced by METARs form (0036 UTC 24 March 2019)
found at http://aviationweather.gov/metar/data/
 
METAR text: KJOT 240015Z AUTO 16003KT 10SM CLR 09/M01 A3023 RMK AO2 T00941012
Conditions at: KJOT (JOLIET , IL, US) observed 0015 UTC 24 March 2019
Temperature: 9.4°C (49°F)
Dewpoint: -1.2°C (30°F) [RH = 47%]
Pressure (altimeter): 30.23 inches Hg (1023.8 mb)
Winds: from the SSE (160 degrees) at 3 MPH (3 knots; 1.5 m/s)
Visibility: 10 or more miles (16+ km)
Ceiling: at least 12,000 feet AGL
Clouds: sky clear below 12,000 feet AGL
Weather: automated observation with no human augmentation;
there may or may not be significant weather present at this time